Galway, Ireland

12:37 PM IST on July 11, 2014 (GMT +0100)
ICOGALWA4 Elev 75 ft | 53.29 °N, 9.07 °W | Change Station

Current weather conditions updated 2 seconds ago

Light Drizzle
Light Drizzle
62.1 °F
Feels Like 62.1 °F
N
6.0
Wind Variable Wind from WSW
Gusts 12.0 mph

Today is forecast to be Cooler than yesterday.

Today
High -- | Low -- °F
--% Chance of Precip.
Yesterday
High -- | Low -- °F
Precip. -- in
5:22 AM 10:00 PM
Waxing Gibbous, 99% visible
Pressure 30.12 in
Visibility 6.2 miles
Clouds Few 900 ft
Mostly Cloudy 1500 ft
Mostly Cloudy 2200 ft
Dew Point 61 °F
Humidity 97%
Rainfall 0.02 in
Snow Depth Not available.
UV 2.2 out of 12
Pollen Not available.
Air Quality Not available.
Flu Activity Not available.
METAR EINN 111130Z 22007KT 9999 -DZ FEW009 BKN015 BKN022 17/15 Q1020 NOSIG

More Conditions Fewer Conditions

Pressure 30.12 in
Visibility 6.2 miles
Clouds Few 900 ft
Mostly Cloudy 1500 ft
Mostly Cloudy 2200 ft
Dew Point 61 °F
Humidity 97%
Rainfall 0.02 in
Snow Depth Not available.
UV 2.2 out of 12
Pollen Not available.
Air Quality Not available.
Flu Activity Not available.
METAR EINN 111130Z 22007KT 9999 -DZ FEW009 BKN015 BKN022 17/15 Q1020 NOSIG

More Conditions Fewer Conditions

10-Day Weather Forecast

Almanac

Astronomy

Jul. 11, 2014 Rise Set
Actual Time 5:22 AM IST 10:00 PM IST
Civil Twilight 4:32 AM IST 10:49 PM IST
Nautical Twilight 3:13 AM IST 12:07 AM IST
Astronomical Twilight Sun does not rise 1:09 AM IST
Moon 8:46 PM IST 4:30 AM IST
Length of Visible Light 18h 16m
Length of Day
16h 37m
Tomorrow will be 2m 6s shorter.
Waxing Gibbous, 99% of the Moon is Illuminated
Today
Waxing Gibbous
Jul 12
Full
Jul 18
Last Quarter
Jul 26
New
Aug 3
First Quarter

Yesterday's Extremes

Country Highs Country Lows

Community

WunderPhotos

Upload Photos

1,732,425 photos uploaded!

WunderBlogs® & News

Nearby

Snow Depth

Not available.

Earthquake Activity

City Distance Mag. Time & Date
No recent earthquake activity has been reported nearby.
Minimum magnitude displayed is 2.5.

Coastal Water Temperatures

Place Temperature
No Stations Reporting

Nearby Weather Stations

Station Location Temp. Dew Point Humidity Wind Precip. Elev Updated Type
Galway City 62.1 °F 61 °F 97% WSW  at  6.0 mph 0.01 in / hr 75 ft 12:37 PM IST Rapid Fire
Rahoon, Rahoon 61.1 °F 60 °F 97% SW  at  7.0 mph 0.00 in / hr 105 ft 12:37 PM IST Rapid Fire
Oranmore, Oranmore 63.3 °F 61 °F 92% South  at  1.0 mph 0.01 in / hr 0 ft 12:37 PM IST Normal
Keeraun, Keeraun 61.5 °F 61 °F 98% WNW  at  9.0 mph 0.00 in / hr 299 ft 12:36 PM IST Normal
Moycullen, Galway 62.0 °F 60 °F 95% South  at  3.0 mph 0.00 in / hr 160 ft 12:35 PM IST Normal
Craughwell, Galway 63.7 °F 60 °F 89% South  at  2.0 mph 0.00 in / hr 223 ft 12:35 PM IST Normal
Rathruddy West, Galway 61.9 °F 55 °F 78% SW  at  3.8 mph 0.00 in / hr 240 ft 12:37 PM IST Rapid Fire

Show More Stations Show Fewer Stations